sensor_id;sensor_type;location;lat;lon;timestamp;temperature;humidity
17891;DHT22;9071;48.220;14.480;2023-03-14T00:04:35;4.90;99.90
17891;DHT22;9071;48.220;14.480;2023-03-14T00:09:37;4.80;99.90
17891;DHT22;9071;48.220;14.480;2023-03-14T00:14:39;4.70;99.90
17891;DHT22;9071;48.220;14.480;2023-03-14T00:19:44;4.60;99.90
17891;DHT22;9071;48.220;14.480;2023-03-14T00:24:46;4.50;99.90
17891;DHT22;9071;48.220;14.480;2023-03-14T00:29:48;4.50;99.90
17891;DHT22;9071;48.220;14.480;2023-03-14T00:34:52;4.50;99.90
17891;DHT22;9071;48.220;14.480;2023-03-14T00:39:54;4.50;99.90
17891;DHT22;9071;48.220;14.480;2023-03-14T00:44:57;4.50;99.90
17891;DHT22;9071;48.220;14.480;2023-03-14T00:50:01;4.50;99.90
17891;DHT22;9071;48.220;14.480;2023-03-14T00:55:03;4.60;99.90
17891;DHT22;9071;48.220;14.480;2023-03-14T01:00:07;4.70;99.90
17891;DHT22;9071;48.220;14.480;2023-03-14T01:05:13;4.80;99.90
17891;DHT22;9071;48.220;14.480;2023-03-14T01:10:16;5.00;99.90
17891;DHT22;9071;48.220;14.480;2023-03-14T01:15:18;5.00;99.90
17891;DHT22;9071;48.220;14.480;2023-03-14T01:20:22;5.10;99.90
17891;DHT22;9071;48.220;14.480;2023-03-14T01:25:24;5.00;99.90
17891;DHT22;9071;48.220;14.480;2023-03-14T01:30:26;5.00;99.90
17891;DHT22;9071;48.220;14.480;2023-03-14T01:35:29;4.90;99.90
17891;DHT22;9071;48.220;14.480;2023-03-14T01:40:31;4.90;99.90
17891;DHT22;9071;48.220;14.480;2023-03-14T01:51:23;5.60;99.90
17891;DHT22;9071;48.220;14.480;2023-03-14T01:56:27;6.10;99.90
17891;DHT22;9071;48.220;14.480;2023-03-14T02:01:29;6.50;99.90
17891;DHT22;9071;48.220;14.480;2023-03-14T02:06:40;6.60;99.90
17891;DHT22;9071;48.220;14.480;2023-03-14T02:11:44;6.50;99.90
17891;DHT22;9071;48.220;14.480;2023-03-14T02:16:47;6.50;99.90
17891;DHT22;9071;48.220;14.480;2023-03-14T02:21:56;6.40;99.90
17891;DHT22;9071;48.220;14.480;2023-03-14T02:27:10;6.50;99.90
17891;DHT22;9071;48.220;14.480;2023-03-14T02:32:12;6.30;99.90
17891;DHT22;9071;48.220;14.480;2023-03-14T02:37:17;6.10;99.90
17891;DHT22;9071;48.220;14.480;2023-03-14T02:42:22;5.80;99.90
17891;DHT22;9071;48.220;14.480;2023-03-14T02:47:28;5.60;99.90
17891;DHT22;9071;48.220;14.480;2023-03-14T02:52:30;5.40;99.90
17891;DHT22;9071;48.220;14.480;2023-03-14T02:57:34;5.30;99.90
17891;DHT22;9071;48.220;14.480;2023-03-14T03:02:36;5.60;99.90
17891;DHT22;9071;48.220;14.480;2023-03-14T03:07:38;5.60;99.90
17891;DHT22;9071;48.220;14.480;2023-03-14T03:12:41;5.50;99.90
17891;DHT22;9071;48.220;14.480;2023-03-14T03:17:44;5.60;99.90
17891;DHT22;9071;48.220;14.480;2023-03-14T03:22:46;5.70;99.90
17891;DHT22;9071;48.220;14.480;2023-03-14T03:27:51;5.70;99.90
17891;DHT22;9071;48.220;14.480;2023-03-14T03:32:53;5.60;99.90
17891;DHT22;9071;48.220;14.480;2023-03-14T03:37:55;5.50;99.90
17891;DHT22;9071;48.220;14.480;2023-03-14T03:42:59;5.30;99.90
17891;DHT22;9071;48.220;14.480;2023-03-14T03:48:01;5.20;99.90
17891;DHT22;9071;48.220;14.480;2023-03-14T03:53:03;5.10;99.90
17891;DHT22;9071;48.220;14.480;2023-03-14T03:58:07;5.30;99.90
17891;DHT22;9071;48.220;14.480;2023-03-14T04:03:09;5.70;99.90
17891;DHT22;9071;48.220;14.480;2023-03-14T04:08:11;6.00;99.90
17891;DHT22;9071;48.220;14.480;2023-03-14T04:13:14;6.20;99.90
17891;DHT22;9071;48.220;14.480;2023-03-14T04:18:16;6.50;99.90
17891;DHT22;9071;48.220;14.480;2023-03-14T04:23:18;6.80;99.90
17891;DHT22;9071;48.220;14.480;2023-03-14T04:28:22;6.90;99.90
17891;DHT22;9071;48.220;14.480;2023-03-14T04:33:24;7.10;99.90
17891;DHT22;9071;48.220;14.480;2023-03-14T04:38:26;7.10;99.90
17891;DHT22;9071;48.220;14.480;2023-03-14T04:43:30;7.10;99.90
17891;DHT22;9071;48.220;14.480;2023-03-14T04:48:32;7.30;99.90
17891;DHT22;9071;48.220;14.480;2023-03-14T04:53:34;7.40;99.90
17891;DHT22;9071;48.220;14.480;2023-03-14T04:58:39;7.60;99.90
17891;DHT22;9071;48.220;14.480;2023-03-14T05:03:41;7.70;99.90
17891;DHT22;9071;48.220;14.480;2023-03-14T05:08:43;7.80;99.90
17891;DHT22;9071;48.220;14.480;2023-03-14T05:13:46;7.80;99.90
17891;DHT22;9071;48.220;14.480;2023-03-14T05:18:49;7.70;99.90
17891;DHT22;9071;48.220;14.480;2023-03-14T05:23:51;7.70;99.90
17891;DHT22;9071;48.220;14.480;2023-03-14T05:28:54;7.80;99.90
17891;DHT22;9071;48.220;14.480;2023-03-14T05:33:56;7.80;99.90
17891;DHT22;9071;48.220;14.480;2023-03-14T05:38:58;7.80;99.90
17891;DHT22;9071;48.220;14.480;2023-03-14T05:44:02;7.90;99.90
17891;DHT22;9071;48.220;14.480;2023-03-14T05:49:04;7.90;99.90
17891;DHT22;9071;48.220;14.480;2023-03-14T05:54:06;8.00;99.90
17891;DHT22;9071;48.220;14.480;2023-03-14T05:59:09;8.10;99.90
17891;DHT22;9071;48.220;14.480;2023-03-14T06:04:11;8.10;99.90
17891;DHT22;9071;48.220;14.480;2023-03-14T06:09:14;8.10;99.90
17891;DHT22;9071;48.220;14.480;2023-03-14T06:14:17;8.20;99.90
17891;DHT22;9071;48.220;14.480;2023-03-14T06:19:20;8.20;99.90
17891;DHT22;9071;48.220;14.480;2023-03-14T06:24:22;8.30;99.90
17891;DHT22;9071;48.220;14.480;2023-03-14T06:29:25;8.40;99.90
17891;DHT22;9071;48.220;14.480;2023-03-14T06:34:28;8.50;99.90
17891;DHT22;9071;48.220;14.480;2023-03-14T06:39:30;8.50;99.90
17891;DHT22;9071;48.220;14.480;2023-03-14T06:44:34;8.40;99.90
17891;DHT22;9071;48.220;14.480;2023-03-14T06:49:36;8.50;99.90
17891;DHT22;9071;48.220;14.480;2023-03-14T06:54:38;8.20;99.90
17891;DHT22;9071;48.220;14.480;2023-03-14T06:59:42;7.80;99.90
17891;DHT22;9071;48.220;14.480;2023-03-14T07:04:44;7.70;99.90
17891;DHT22;9071;48.220;14.480;2023-03-14T07:09:46;7.70;99.90
17891;DHT22;9071;48.220;14.480;2023-03-14T07:14:49;7.70;99.90
17891;DHT22;9071;48.220;14.480;2023-03-14T07:19:51;7.70;99.90
17891;DHT22;9071;48.220;14.480;2023-03-14T07:24:53;7.90;99.90
17891;DHT22;9071;48.220;14.480;2023-03-14T07:29:57;8.00;99.90
17891;DHT22;9071;48.220;14.480;2023-03-14T07:34:59;8.20;99.90
17891;DHT22;9071;48.220;14.480;2023-03-14T07:40:01;8.40;99.90
17891;DHT22;9071;48.220;14.480;2023-03-14T07:45:08;8.70;99.90
17891;DHT22;9071;48.220;14.480;2023-03-14T07:50:10;8.80;99.90
17891;DHT22;9071;48.220;14.480;2023-03-14T07:55:13;9.00;99.90
17891;DHT22;9071;48.220;14.480;2023-03-14T08:00:17;9.30;99.90
17891;DHT22;9071;48.220;14.480;2023-03-14T08:05:19;9.40;99.90
17891;DHT22;9071;48.220;14.480;2023-03-14T08:10:21;9.60;99.90
17891;DHT22;9071;48.220;14.480;2023-03-14T08:15:27;9.60;99.90
17891;DHT22;9071;48.220;14.480;2023-03-14T08:20:31;9.70;99.90
17891;DHT22;9071;48.220;14.480;2023-03-14T08:25:33;9.80;99.90
17891;DHT22;9071;48.220;14.480;2023-03-14T08:30:36;9.80;99.90
17891;DHT22;9071;48.220;14.480;2023-03-14T08:35:38;9.80;99.90
17891;DHT22;9071;48.220;14.480;2023-03-14T08:40:41;9.70;99.90
17891;DHT22;9071;48.220;14.480;2023-03-14T08:45:44;9.70;99.90
17891;DHT22;9071;48.220;14.480;2023-03-14T08:50:46;9.60;99.90
17891;DHT22;9071;48.220;14.480;2023-03-14T08:55:52;9.60;99.90
17891;DHT22;9071;48.220;14.480;2023-03-14T09:00:56;9.60;99.90
17891;DHT22;9071;48.220;14.480;2023-03-14T09:06:02;9.40;99.90
17891;DHT22;9071;48.220;14.480;2023-03-14T09:11:07;9.30;99.90
17891;DHT22;9071;48.220;14.480;2023-03-14T09:16:11;9.20;99.90
17891;DHT22;9071;48.220;14.480;2023-03-14T09:21:13;9.10;99.90
17891;DHT22;9071;48.220;14.480;2023-03-14T09:26:16;9.10;99.90
17891;DHT22;9071;48.220;14.480;2023-03-14T09:31:19;9.00;99.90
17891;DHT22;9071;48.220;14.480;2023-03-14T09:36:22;9.00;99.90
17891;DHT22;9071;48.220;14.480;2023-03-14T09:41:27;9.00;99.90
17891;DHT22;9071;48.220;14.480;2023-03-14T09:46:32;8.90;99.90
17891;DHT22;9071;48.220;14.480;2023-03-14T09:51:37;8.90;99.90
17891;DHT22;9071;48.220;14.480;2023-03-14T09:56:39;8.90;99.90
17891;DHT22;9071;48.220;14.480;2023-03-14T10:01:43;9.00;99.90
17891;DHT22;9071;48.220;14.480;2023-03-14T10:06:45;9.10;99.90
17891;DHT22;9071;48.220;14.480;2023-03-14T10:11:48;9.10;99.90
17891;DHT22;9071;48.220;14.480;2023-03-14T10:16:51;9.10;99.90
17891;DHT22;9071;48.220;14.480;2023-03-14T10:21:54;9.10;99.90
17891;DHT22;9071;48.220;14.480;2023-03-14T10:26:59;9.20;99.90
17891;DHT22;9071;48.220;14.480;2023-03-14T10:32:06;9.20;99.90
17891;DHT22;9071;48.220;14.480;2023-03-14T10:37:18;9.30;99.90
17891;DHT22;9071;48.220;14.480;2023-03-14T10:42:25;9.30;99.90
17891;DHT22;9071;48.220;14.480;2023-03-14T10:47:32;9.30;99.90
17891;DHT22;9071;48.220;14.480;2023-03-14T10:52:34;9.30;99.90
17891;DHT22;9071;48.220;14.480;2023-03-14T10:57:38;9.30;99.90
17891;DHT22;9071;48.220;14.480;2023-03-14T11:02:49;9.30;99.90
17891;DHT22;9071;48.220;14.480;2023-03-14T11:07:58;9.30;99.90
17891;DHT22;9071;48.220;14.480;2023-03-14T11:13:12;9.30;99.90
17891;DHT22;9071;48.220;14.480;2023-03-14T11:18:43;9.40;99.90
17891;DHT22;9071;48.220;14.480;2023-03-14T11:23:58;9.40;99.90
17891;DHT22;9071;48.220;14.480;2023-03-14T11:29:12;9.50;99.90
17891;DHT22;9071;48.220;14.480;2023-03-14T11:34:27;9.60;99.90
17891;DHT22;9071;48.220;14.480;2023-03-14T11:39:36;9.70;99.90
17891;DHT22;9071;48.220;14.480;2023-03-14T11:44:41;9.90;99.90
17891;DHT22;9071;48.220;14.480;2023-03-14T11:49:48;10.10;99.90
17891;DHT22;9071;48.220;14.480;2023-03-14T11:54:55;10.20;99.90
17891;DHT22;9071;48.220;14.480;2023-03-14T12:00:02;10.40;99.90
17891;DHT22;9071;48.220;14.480;2023-03-14T12:10:50;10.80;99.90
17891;DHT22;9071;48.220;14.480;2023-03-14T12:15:55;11.00;99.90
17891;DHT22;9071;48.220;14.480;2023-03-14T12:21:02;11.00;99.90
17891;DHT22;9071;48.220;14.480;2023-03-14T12:26:15;11.20;99.90
17891;DHT22;9071;48.220;14.480;2023-03-14T12:31:37;11.20;99.90
17891;DHT22;9071;48.220;14.480;2023-03-14T12:36:54;11.50;99.90
17891;DHT22;9071;48.220;14.480;2023-03-14T12:42:03;11.70;99.90
17891;DHT22;9071;48.220;14.480;2023-03-14T12:52:54;11.60;99.90
17891;DHT22;9071;48.220;14.480;2023-03-14T12:58:02;11.60;99.90
17891;DHT22;9071;48.220;14.480;2023-03-14T13:03:20;11.60;99.90
17891;DHT22;9071;48.220;14.480;2023-03-14T13:08:39;11.60;99.90
17891;DHT22;9071;48.220;14.480;2023-03-14T13:13:45;11.50;99.90
17891;DHT22;9071;48.220;14.480;2023-03-14T13:18:49;11.60;99.90
17891;DHT22;9071;48.220;14.480;2023-03-14T13:23:59;11.50;99.90
17891;DHT22;9071;48.220;14.480;2023-03-14T13:29:09;11.50;99.90
17891;DHT22;9071;48.220;14.480;2023-03-14T13:34:11;11.50;99.90
17891;DHT22;9071;48.220;14.480;2023-03-14T13:39:19;11.40;99.90
17891;DHT22;9071;48.220;14.480;2023-03-14T13:44:25;11.30;99.90
17891;DHT22;9071;48.220;14.480;2023-03-14T13:49:29;11.20;99.90
17891;DHT22;9071;48.220;14.480;2023-03-14T13:54:38;11.20;99.90
17891;DHT22;9071;48.220;14.480;2023-03-14T13:59:41;11.20;99.90
17891;DHT22;9071;48.220;14.480;2023-03-14T14:04:43;11.20;99.90
17891;DHT22;9071;48.220;14.480;2023-03-14T14:09:49;11.20;99.90
17891;DHT22;9071;48.220;14.480;2023-03-14T14:14:54;11.10;99.90
17891;DHT22;9071;48.220;14.480;2023-03-14T14:19:58;11.10;99.90
17891;DHT22;9071;48.220;14.480;2023-03-14T14:25:03;11.20;99.90
17891;DHT22;9071;48.220;14.480;2023-03-14T14:30:24;11.30;99.90
17891;DHT22;9071;48.220;14.480;2023-03-14T14:35:32;11.40;99.90
17891;DHT22;9071;48.220;14.480;2023-03-14T14:40:44;11.40;99.90
17891;DHT22;9071;48.220;14.480;2023-03-14T14:45:49;11.50;99.90
17891;DHT22;9071;48.220;14.480;2023-03-14T14:50:58;11.60;99.90
17891;DHT22;9071;48.220;14.480;2023-03-14T14:56:13;11.50;99.90
17891;DHT22;9071;48.220;14.480;2023-03-14T15:01:18;11.50;99.90
17891;DHT22;9071;48.220;14.480;2023-03-14T15:06:23;11.40;99.90
17891;DHT22;9071;48.220;14.480;2023-03-14T15:11:29;11.30;99.90
17891;DHT22;9071;48.220;14.480;2023-03-14T15:16:32;11.30;99.90
17891;DHT22;9071;48.220;14.480;2023-03-14T15:21:34;11.40;99.90
17891;DHT22;9071;48.220;14.480;2023-03-14T15:26:38;11.50;99.90
17891;DHT22;9071;48.220;14.480;2023-03-14T15:31:40;11.60;99.90
17891;DHT22;9071;48.220;14.480;2023-03-14T15:36:43;11.70;99.90
17891;DHT22;9071;48.220;14.480;2023-03-14T15:41:48;11.80;99.90
17891;DHT22;9071;48.220;14.480;2023-03-14T15:46:50;11.80;99.90
17891;DHT22;9071;48.220;14.480;2023-03-14T15:51:52;11.70;99.90
17891;DHT22;9071;48.220;14.480;2023-03-14T15:56:56;11.50;99.90
17891;DHT22;9071;48.220;14.480;2023-03-14T16:01:58;11.30;99.90
17891;DHT22;9071;48.220;14.480;2023-03-14T16:07:00;11.10;99.90
17891;DHT22;9071;48.220;14.480;2023-03-14T16:12:04;11.00;99.90
17891;DHT22;9071;48.220;14.480;2023-03-14T16:17:08;10.90;99.90
17891;DHT22;9071;48.220;14.480;2023-03-14T16:22:11;10.80;99.90
17891;DHT22;9071;48.220;14.480;2023-03-14T16:27:14;10.60;99.90
17891;DHT22;9071;48.220;14.480;2023-03-14T16:32:16;10.50;99.90
17891;DHT22;9071;48.220;14.480;2023-03-14T16:37:19;10.40;99.90
17891;DHT22;9071;48.220;14.480;2023-03-14T16:42:23;10.30;99.90
17891;DHT22;9071;48.220;14.480;2023-03-14T16:47:25;10.30;99.90
17891;DHT22;9071;48.220;14.480;2023-03-14T16:52:29;10.20;99.90
17891;DHT22;9071;48.220;14.480;2023-03-14T16:57:33;10.10;99.90
17891;DHT22;9071;48.220;14.480;2023-03-14T17:02:35;10.10;99.90
17891;DHT22;9071;48.220;14.480;2023-03-14T17:07:37;10.30;99.90
17891;DHT22;9071;48.220;14.480;2023-03-14T17:12:41;10.40;99.90
17891;DHT22;9071;48.220;14.480;2023-03-14T17:17:43;10.20;99.90
17891;DHT22;9071;48.220;14.480;2023-03-14T17:22:45;9.70;99.90
17891;DHT22;9071;48.220;14.480;2023-03-14T17:27:48;9.50;99.90
17891;DHT22;9071;48.220;14.480;2023-03-14T17:32:50;9.40;99.90
17891;DHT22;9071;48.220;14.480;2023-03-14T17:37:53;9.30;99.90
17891;DHT22;9071;48.220;14.480;2023-03-14T17:42:56;9.30;99.90
17891;DHT22;9071;48.220;14.480;2023-03-14T17:47:58;9.30;99.90
17891;DHT22;9071;48.220;14.480;2023-03-14T17:53:00;9.20;99.90
17891;DHT22;9071;48.220;14.480;2023-03-14T17:58:04;9.20;99.90
17891;DHT22;9071;48.220;14.480;2023-03-14T18:03:06;9.20;99.90
17891;DHT22;9071;48.220;14.480;2023-03-14T18:08:12;9.10;99.90
17891;DHT22;9071;48.220;14.480;2023-03-14T18:13:16;9.10;99.90
17891;DHT22;9071;48.220;14.480;2023-03-14T18:18:18;9.20;99.90
17891;DHT22;9071;48.220;14.480;2023-03-14T18:23:21;9.20;99.90
17891;DHT22;9071;48.220;14.480;2023-03-14T18:28:24;9.20;99.90
17891;DHT22;9071;48.220;14.480;2023-03-14T18:33:27;9.20;99.90
17891;DHT22;9071;48.220;14.480;2023-03-14T18:38:29;9.20;99.90
17891;DHT22;9071;48.220;14.480;2023-03-14T18:43:32;9.10;99.90
17891;DHT22;9071;48.220;14.480;2023-03-14T18:48:34;9.20;99.90
17891;DHT22;9071;48.220;14.480;2023-03-14T18:53:42;9.20;99.90
17891;DHT22;9071;48.220;14.480;2023-03-14T18:58:46;8.90;99.90
17891;DHT22;9071;48.220;14.480;2023-03-14T19:03:48;8.40;99.90
17891;DHT22;9071;48.220;14.480;2023-03-14T19:08:50;8.30;99.90
17891;DHT22;9071;48.220;14.480;2023-03-14T19:13:57;8.30;99.90
17891;DHT22;9071;48.220;14.480;2023-03-14T19:19:00;8.30;99.90
17891;DHT22;9071;48.220;14.480;2023-03-14T19:24:03;8.30;99.90
17891;DHT22;9071;48.220;14.480;2023-03-14T19:29:07;8.40;99.90
17891;DHT22;9071;48.220;14.480;2023-03-14T19:34:09;8.40;99.90
17891;DHT22;9071;48.220;14.480;2023-03-14T19:39:11;8.30;99.90
17891;DHT22;9071;48.220;14.480;2023-03-14T19:44:15;8.20;99.90
17891;DHT22;9071;48.220;14.480;2023-03-14T19:49:17;8.20;99.90
17891;DHT22;9071;48.220;14.480;2023-03-14T19:54:19;8.10;99.90
17891;DHT22;9071;48.220;14.480;2023-03-14T19:59:24;8.10;99.90
17891;DHT22;9071;48.220;14.480;2023-03-14T20:04:26;7.90;99.90
17891;DHT22;9071;48.220;14.480;2023-03-14T20:09:28;7.70;99.90
17891;DHT22;9071;48.220;14.480;2023-03-14T20:14:33;7.60;99.90
17891;DHT22;9071;48.220;14.480;2023-03-14T20:19:35;7.50;99.90
17891;DHT22;9071;48.220;14.480;2023-03-14T20:24:38;7.40;99.90
17891;DHT22;9071;48.220;14.480;2023-03-14T20:29:41;7.40;99.90
17891;DHT22;9071;48.220;14.480;2023-03-14T20:34:43;7.40;99.90
17891;DHT22;9071;48.220;14.480;2023-03-14T20:39:45;7.50;99.90
17891;DHT22;9071;48.220;14.480;2023-03-14T20:44:49;7.50;99.90
17891;DHT22;9071;48.220;14.480;2023-03-14T20:49:51;7.40;99.90
17891;DHT22;9071;48.220;14.480;2023-03-14T20:54:53;7.30;99.90
17891;DHT22;9071;48.220;14.480;2023-03-14T20:59:56;7.10;99.90
17891;DHT22;9071;48.220;14.480;2023-03-14T21:04:58;7.00;99.90
17891;DHT22;9071;48.220;14.480;2023-03-14T21:10:01;6.90;99.90
17891;DHT22;9071;48.220;14.480;2023-03-14T21:15:06;6.90;99.90
17891;DHT22;9071;48.220;14.480;2023-03-14T21:20:10;6.90;99.90
17891;DHT22;9071;48.220;14.480;2023-03-14T21:25:12;6.80;99.90
17891;DHT22;9071;48.220;14.480;2023-03-14T21:30:16;6.80;99.90
17891;DHT22;9071;48.220;14.480;2023-03-14T21:35:18;6.70;99.90
17891;DHT22;9071;48.220;14.480;2023-03-14T21:40:20;6.80;99.90
17891;DHT22;9071;48.220;14.480;2023-03-14T21:45:26;6.80;99.90
17891;DHT22;9071;48.220;14.480;2023-03-14T21:50:28;6.80;99.90
17891;DHT22;9071;48.220;14.480;2023-03-14T21:55:30;6.80;99.90
17891;DHT22;9071;48.220;14.480;2023-03-14T22:00:34;6.80;99.90
17891;DHT22;9071;48.220;14.480;2023-03-14T22:05:36;6.70;99.90
17891;DHT22;9071;48.220;14.480;2023-03-14T22:10:42;6.70;99.90
17891;DHT22;9071;48.220;14.480;2023-03-14T22:15:47;6.90;99.90
17891;DHT22;9071;48.220;14.480;2023-03-14T22:20:49;6.90;99.90
17891;DHT22;9071;48.220;14.480;2023-03-14T22:25:51;6.90;99.90
17891;DHT22;9071;48.220;14.480;2023-03-14T22:30:55;6.70;99.90
17891;DHT22;9071;48.220;14.480;2023-03-14T22:35:57;6.70;99.90
17891;DHT22;9071;48.220;14.480;2023-03-14T22:40:59;6.60;99.90
17891;DHT22;9071;48.220;14.480;2023-03-14T22:46:05;6.50;99.90
17891;DHT22;9071;48.220;14.480;2023-03-14T22:51:09;6.40;99.90
17891;DHT22;9071;48.220;14.480;2023-03-14T22:56:11;6.40;99.90
17891;DHT22;9071;48.220;14.480;2023-03-14T23:01:15;6.30;99.90
17891;DHT22;9071;48.220;14.480;2023-03-14T23:06:17;6.10;99.90
17891;DHT22;9071;48.220;14.480;2023-03-14T23:11:20;6.00;99.90
17891;DHT22;9071;48.220;14.480;2023-03-14T23:16:27;5.90;99.90
17891;DHT22;9071;48.220;14.480;2023-03-14T23:21:29;5.80;99.90
17891;DHT22;9071;48.220;14.480;2023-03-14T23:26:31;5.80;99.90
17891;DHT22;9071;48.220;14.480;2023-03-14T23:31:37;5.90;99.90
17891;DHT22;9071;48.220;14.480;2023-03-14T23:36:39;5.80;99.90
17891;DHT22;9071;48.220;14.480;2023-03-14T23:41:41;5.80;99.90
17891;DHT22;9071;48.220;14.480;2023-03-14T23:46:44;5.80;99.90
17891;DHT22;9071;48.220;14.480;2023-03-14T23:51:46;5.80;99.90
17891;DHT22;9071;48.220;14.480;2023-03-14T23:56:48;5.90;99.90
